Time;durP1;ratioP1;P1;durP2;ratioP2;P2;SDS_P1;SDS_P2;PMS_P1;PMS_P2;Temp;Humidity;BMP_temperature;BMP_pressure;BME280_temperature;BME280_humidity;BME280_pressure;Samples;Min_cycle;Max_cycle;Signal;HPM_P1;HPM_P2
2021/10/09 00:02:28;;;;;;;37.97;31.40;;;;;;;12.58;71.47;102974.53;10343743;28;20030;-89
2021/10/09 00:07:28;;;;;;;39.72;29.67;;;;;;;12.72;72.10;102998.41;10344347;28;20046;-90
2021/10/09 00:12:29;;;;;;;40.90;31.13;;;;;;;12.14;71.30;102905.78;10338950;28;20045;-90
2021/10/09 00:17:30;;;;;;;40.55;28.38;;;;;;;12.63;71.66;102998.50;10338071;28;20172;-89
2021/10/09 00:22:30;;;;;;;44.83;32.05;;;;;;;12.44;71.07;102969.66;10339021;28;20509;-90
2021/10/09 00:27:31;;;;;;;35.17;28.30;;;;;;;12.50;71.24;103005.22;10339098;28;20046;-90
2021/10/09 00:32:31;;;;;;;47.67;32.45;;;;;;;12.34;71.98;102995.06;10321665;28;20475;-89
2021/10/09 00:37:31;;;;;;;46.78;32.97;;;;;;;12.40;72.07;102998.19;10341207;28;20043;-89
2021/10/09 00:42:32;;;;;;;43.05;30.65;;;;;;;12.34;71.88;102984.19;10321679;28;20038;-89
2021/10/09 00:47:32;;;;;;;45.03;31.23;;;;;;;12.37;71.89;102999.34;10342916;28;20034;-89
2021/10/09 00:52:34;;;;;;;42.72;31.80;;;;;;;12.32;71.85;102991.69;10339042;28;20058;-89
2021/10/09 00:57:37;;;;;;;38.80;30.85;;;;;;;12.28;71.98;103001.16;10338956;28;20049;-89
2021/10/09 01:02:37;;;;;;;42.78;35.38;;;;;;;12.08;72.26;102951.56;10323626;28;20034;-89
2021/10/09 01:07:38;;;;;;;42.75;33.22;;;;;;;12.28;72.29;102989.41;10322565;28;20077;-87
2021/10/09 01:12:38;;;;;;;38.63;31.45;;;;;;;11.95;71.89;102931.28;10340220;28;20042;-90
2021/10/09 01:17:39;;;;;;;58.78;33.72;;;;;;;12.25;72.10;102982.47;10340103;28;20487;-88
2021/10/09 01:22:39;;;;;;;45.25;30.02;;;;;;;12.18;71.84;102983.22;10339262;28;20041;-90
2021/10/09 01:27:40;;;;;;;39.72;30.63;;;;;;;12.20;71.80;102987.50;10337547;28;20109;-88
2021/10/09 01:32:40;;;;;;;42.55;33.50;;;;;;;12.18;72.17;102984.06;10337391;28;20031;-90
2021/10/09 01:37:42;;;;;;;48.00;34.55;;;;;;;12.16;71.50;102983.41;10339280;28;20093;-89
2021/10/09 01:42:42;;;;;;;44.17;32.35;;;;;;;12.11;72.12;102974.84;10340169;28;20042;-88
2021/10/09 01:47:42;;;;;;;42.70;33.10;;;;;;;12.09;71.58;102974.16;10340227;28;20034;-88
2021/10/09 01:52:43;;;;;;;46.35;33.20;;;;;;;12.00;71.41;102961.53;10359315;28;20054;-90
2021/10/09 01:57:43;;;;;;;45.83;32.10;;;;;;;11.63;71.67;102905.50;10365548;28;20038;-90
2021/10/09 02:02:43;;;;;;;45.05;32.90;;;;;;;11.95;71.31;102956.56;10342334;28;20101;-89
2021/10/09 02:07:44;;;;;;;40.53;31.98;;;;;;;11.89;71.72;102959.03;10333689;28;20120;-87
2021/10/09 02:12:44;;;;;;;47.58;33.05;;;;;;;11.91;71.47;102959.75;10337948;28;20038;-90
2021/10/09 02:18:04;;;;;;;41.60;31.40;;;;;;;11.59;71.42;102909.56;10338746;28;20084;-89
2021/10/09 02:28:23;;;;;;;41.60;31.60;;;;;;;11.54;71.37;102928.16;10338749;28;20113;-89
2021/10/09 02:33:23;;;;;;;40.03;31.23;;;;;;;11.62;71.75;102947.25;10352469;28;20462;-89
2021/10/09 02:38:24;;;;;;;46.47;35.58;;;;;;;11.47;71.38;102921.63;10338030;28;20134;-88
2021/10/09 02:43:24;;;;;;;45.85;34.58;;;;;;;11.61;71.70;102948.22;10337228;28;20438;-88
2021/10/09 02:48:25;;;;;;;52.58;33.97;;;;;;;11.59;71.88;102947.53;10335068;28;20045;-88
2021/10/09 02:53:25;;;;;;;43.92;32.50;;;;;;;11.52;71.77;102941.88;10335548;28;20109;-87
2021/10/09 02:58:25;;;;;;;51.85;35.28;;;;;;;11.55;71.93;102943.41;10339234;28;20398;-89
2021/10/09 03:03:26;;;;;;;48.13;33.65;;;;;;;11.53;72.32;102942.72;10339140;28;20038;-88
2021/10/09 03:08:26;;;;;;;46.35;33.95;;;;;;;11.52;72.08;102950.03;10339302;28;20035;-89
2021/10/09 03:13:27;;;;;;;46.13;35.67;;;;;;;10.79;71.81;102825.31;10347657;28;20022;-88
2021/10/09 03:18:27;;;;;;;47.50;37.63;;;;;;;11.10;72.52;102884.63;10376066;28;20096;-88
2021/10/09 03:23:27;;;;;;;54.70;37.35;;;;;;;11.04;72.51;102874.38;10401599;28;20030;-89
2021/10/09 03:28:28;;;;;;;66.40;41.05;;;;;;;11.27;73.48;102929.91;10381284;28;20046;-84
2021/10/09 03:33:28;;;;;;;59.35;41.28;;;;;;;11.32;73.12;102932.16;10349571;28;20121;-88
2021/10/09 03:38:29;;;;;;;55.47;38.05;;;;;;;11.46;73.04;102941.66;10343062;28;20499;-89
2021/10/09 03:43:29;;;;;;;66.55;40.05;;;;;;;11.44;72.97;102941.78;10343006;28;20505;-89
2021/10/09 03:53:49;;;;;;;53.40;36.80;;;;;;;11.43;72.84;102933.81;10357115;28;20054;-88
2021/10/09 03:58:49;;;;;;;57.65;39.28;;;;;;;11.32;73.20;102946.56;10361024;28;20118;-86
2021/10/09 04:03:50;;;;;;;53.47;42.00;;;;;;;11.30;73.40;102940.47;10345023;28;20053;-87
2021/10/09 04:08:50;;;;;;;52.78;37.83;;;;;;;10.12;73.01;102747.97;10360476;28;20046;-87
2021/10/09 04:13:51;;;;;;;65.68;44.22;;;;;;;11.12;73.49;102929.56;10368734;28;20042;-88
2021/10/09 04:18:51;;;;;;;64.72;42.58;;;;;;;11.27;73.53;102924.50;10343903;28;20042;-87
2021/10/09 04:23:51;;;;;;;54.38;37.47;;;;;;;10.74;73.30;102848.47;10339691;28;20041;-88
2021/10/09 04:28:52;;;;;;;58.60;42.97;;;;;;;10.70;74.01;102851.47;10338983;28;20030;-87
2021/10/09 04:33:52;;;;;;;53.40;41.25;;;;;;;11.11;74.08;102913.47;10338555;28;20034;-87
2021/10/09 04:38:53;;;;;;;63.30;42.83;;;;;;;11.25;73.56;102912.06;10339400;28;20049;-88
2021/10/09 04:43:53;;;;;;;64.18;40.70;;;;;;;11.34;74.07;102931.00;10338984;28;20034;-85
2021/10/09 04:48:53;;;;;;;64.43;43.08;;;;;;;10.80;74.12;102851.41;10321611;28;20501;-88
2021/10/09 04:53:54;;;;;;;57.58;40.40;;;;;;;11.32;73.90;102934.88;10337404;28;20050;-86
2021/10/09 04:58:54;;;;;;;62.55;41.85;;;;;;;11.35;73.42;102929.97;10339236;28;20050;-88
2021/10/09 05:03:55;;;;;;;52.63;37.35;;;;;;;11.29;73.10;102933.31;10335604;28;20041;-87
2021/10/09 05:08:55;;;;;;;51.22;37.55;;;;;;;10.77;72.53;102835.47;10337558;28;20129;-88
2021/10/09 05:13:56;;;;;;;51.63;35.92;;;;;;;11.08;72.13;102902.91;10338488;28;20490;-88
2021/10/09 05:18:56;;;;;;;51.40;36.80;;;;;;;11.09;72.02;102934.44;10320266;28;20077;-88
2021/10/09 05:23:56;;;;;;;52.95;37.90;;;;;;;11.04;73.08;102923.19;10337861;28;20118;-88
2021/10/09 05:28:57;;;;;;;57.78;36.67;;;;;;;11.07;72.50;102929.19;10336815;28;20034;-87
2021/10/09 05:33:57;;;;;;;52.53;37.00;;;;;;;10.67;72.23;102867.19;10335728;28;20034;-88
2021/10/09 05:38:58;;;;;;;51.25;35.75;;;;;;;10.80;72.12;102899.34;10335904;28;20037;-87
2021/10/09 05:43:58;;;;;;;66.05;39.72;;;;;;;10.78;72.56;102913.03;10335762;28;20130;-86
2021/10/09 05:48:59;;;;;;;63.90;38.35;;;;;;;10.56;72.67;102870.06;10318706;28;20030;-88
2021/10/09 05:54:08;;;;;;;59.25;37.47;;;;;;;10.88;72.42;102940.97;10336418;28;20050;-86
2021/10/09 06:31:37;;;;;;;53.53;35.42;;;;;;;11.24;73.16;102962.75;10345349;28;20076;-82
2021/10/09 07:02:46;;;;;;;60.42;44.22;;;;;;;13.18;71.41;102988.13;10346368;28;20468;-83
2021/10/09 07:07:52;;;;;;;69.15;43.20;;;;;;;12.83;71.75;102909.41;10344682;28;20038;-89
2021/10/09 07:12:52;;;;;;;64.37;45.80;;;;;;;13.61;71.29;102988.94;10343744;28;20133;-83
2021/10/09 07:17:52;;;;;;;80.68;44.67;;;;;;;13.66;71.15;102972.97;10326697;28;20554;-83
2021/10/09 07:22:53;;;;;;;75.15;50.47;;;;;;;13.82;72.14;102979.47;10344671;28;20042;-86
2021/10/09 07:27:53;;;;;;;83.10;51.70;;;;;;;13.91;72.09;102983.88;10287561;28;20042;-82
2021/10/09 07:32:54;;;;;;;80.57;49.53;;;;;;;13.69;72.93;102975.38;10343548;28;20034;-82
2021/10/09 07:37:54;;;;;;;72.45;46.92;;;;;;;14.08;72.38;103004.69;10345125;28;20074;-83
2021/10/09 07:42:55;;;;;;;80.45;51.75;;;;;;;14.01;72.69;102931.97;10345581;28;20141;-83
2021/10/09 07:47:55;;;;;;;73.97;53.50;;;;;;;14.70;72.19;102997.84;10344564;28;20038;-84
2021/10/09 07:52:55;;;;;;;85.45;55.70;;;;;;;15.44;72.01;102988.34;10344810;28;20129;-85
2021/10/09 07:57:56;;;;;;;77.57;56.00;;;;;;;15.50;71.35;103017.69;10342530;28;20501;-83
2021/10/09 08:03:02;;;;;;;75.68;48.90;;;;;;;15.41;70.92;103013.31;10358580;28;20045;-85
2021/10/09 08:08:03;;;;;;;61.03;44.57;;;;;;;15.75;70.82;102985.66;10343702;28;20137;-85
2021/10/09 08:13:03;;;;;;;66.85;49.63;;;;;;;16.11;70.10;102976.84;10324826;28;20023;-86
2021/10/09 08:18:03;;;;;;;55.05;41.72;;;;;;;16.52;69.90;103015.59;10341799;28;20506;-85
2021/10/09 08:23:08;;;;;;;50.65;40.72;;;;;;;16.59;71.43;102991.13;10341181;28;20084;-85
2021/10/09 08:35:24;;;;;;;50.30;36.97;;;;;;;17.04;70.46;103013.91;10340581;28;20030;-86
2021/10/09 08:38:56;;;;;;;41.65;30.52;;;;;;;17.86;68.81;103008.19;10340448;28;20038;-86
2021/10/09 08:43:57;;;;;;;35.25;29.20;;;;;;;18.44;67.35;103023.72;10373274;28;20390;-85
2021/10/09 08:48:57;;;;;;;41.88;28.17;;;;;;;18.40;67.42;102993.09;10358796;28;20057;-85
2021/10/09 08:54:06;;;;;;;41.42;27.63;;;;;;;18.28;70.05;103016.63;10340098;28;20407;-84
2021/10/09 08:59:13;;;;;;;38.88;26.83;;;;;;;18.45;68.02;103022.69;10355164;28;20034;-85
2021/10/09 09:41:11;;;;;;;35.50;24.88;;;;;;;20.14;64.21;103007.47;10317662;28;20149;-82
2021/10/09 09:46:16;;;;;;;35.72;22.83;;;;;;;20.50;65.14;102995.19;10380095;28;20042;-82
2021/10/09 09:51:18;;;;;;;32.33;24.63;;;;;;;20.70;64.17;102972.31;10398666;28;20061;-82
2021/10/09 09:56:18;;;;;;;35.55;26.40;;;;;;;20.77;63.93;103000.69;10405817;28;20049;-84
2021/10/09 10:01:20;;;;;;;32.95;25.15;;;;;;;21.21;67.44;102979.78;10382457;28;20142;-84
2021/10/09 10:06:20;;;;;;;31.20;24.13;;;;;;;21.15;66.16;102984.25;10400721;28;20026;-85
2021/10/09 10:11:21;;;;;;;34.25;22.15;;;;;;;21.26;62.17;102996.53;10377611;28;20489;-84
2021/10/09 10:16:21;;;;;;;29.08;25.42;;;;;;;21.67;61.91;102968.56;10362641;28;20125;-83
2021/10/09 10:21:44;;;;;;;38.85;25.83;;;;;;;20.89;66.28;102943.88;10376267;28;20038;-84
2021/10/09 10:26:45;;;;;;;34.53;22.92;;;;;;;21.02;61.21;102992.56;10391252;28;20038;-84
2021/10/09 10:32:13;;;;;;;31.88;26.10;;;;;;;21.12;65.99;102993.84;10375534;28;20533;-84
2021/10/09 10:37:33;;;;;;;39.15;22.40;;;;;;;21.51;65.17;102986.47;10376191;28;20398;-84
2021/10/09 10:42:34;;;;;;;32.92;22.83;;;;;;;21.91;60.66;102986.22;10375303;28;20397;-84
2021/10/09 10:53:02;;;;;;;29.27;22.10;;;;;;;21.69;61.08;102993.16;10375863;28;20053;-83
2021/10/09 10:58:22;;;;;;;34.60;23.55;;;;;;;21.18;64.00;102978.31;10381563;28;20050;-83
2021/10/09 11:03:22;;;;;;;36.28;24.05;;;;;;;20.84;62.72;102963.81;10383895;28;20034;-82
2021/10/09 11:08:23;;;;;;;42.40;24.90;;;;;;;21.45;59.08;102981.00;10377834;28;20034;-77
2021/10/09 11:13:23;;;;;;;30.88;24.88;;;;;;;21.31;59.44;102980.16;10372417;28;20053;-80
2021/10/09 11:18:23;;;;;;;32.28;24.80;;;;;;;21.36;64.96;102988.66;10388767;28;20030;-77
2021/10/09 11:23:24;;;;;;;38.80;26.10;;;;;;;21.78;61.33;102898.06;10373397;28;20474;-76
2021/10/09 11:28:28;;;;;;;32.97;23.23;;;;;;;22.21;58.73;102964.38;10372798;28;20033;-76
2021/10/09 11:33:29;;;;;;;37.85;24.30;;;;;;;21.99;58.13;102996.16;10371484;28;20033;-79
2021/10/09 11:38:32;;;;;;;31.35;22.95;;;;;;;21.60;61.36;102912.59;10356881;28;20108;-78
2021/10/09 11:43:58;;;;;;;35.88;24.20;;;;;;;21.96;63.76;102974.53;10381961;28;20030;-87
2021/10/09 11:55:01;;;;;;;40.83;24.13;;;;;;;22.09;59.97;102971.66;10395666;28;20046;-87
2021/10/09 12:00:01;;;;;;;39.47;25.65;;;;;;;22.03;61.97;102939.47;10381649;28;20045;-87
2021/10/09 12:05:02;;;;;;;28.63;23.13;;;;;;;22.28;61.37;102940.31;10380956;28;20465;-87
2021/10/09 12:10:11;;;;;;;31.30;24.27;;;;;;;22.48;59.63;102950.34;10380815;28;20057;-87
2021/10/09 12:15:23;;;;;;;40.72;24.50;;;;;;;22.66;61.25;102941.25;10379591;28;20054;-87
2021/10/09 12:20:25;;;;;;;32.83;24.48;;;;;;;22.73;56.41;102955.81;10397383;28;20030;-87
2021/10/09 12:25:26;;;;;;;34.10;22.77;;;;;;;22.80;57.07;102956.56;10379733;28;20033;-87
2021/10/09 12:30:46;;;;;;;30.73;22.02;;;;;;;22.69;60.83;102941.63;10381162;28;20425;-87
2021/10/09 12:35:47;;;;;;;36.40;23.50;;;;;;;23.53;56.27;102957.59;10394880;28;20029;-86
2021/10/09 12:40:48;;;;;;;26.77;22.10;;;;;;;23.56;57.62;102940.53;10378899;28;20150;-86
2021/10/09 12:45:48;;;;;;;35.03;24.45;;;;;;;22.97;57.22;102940.25;10380055;28;20033;-86
2021/10/09 12:50:49;;;;;;;32.28;24.48;;;;;;;23.20;55.61;102906.38;10377939;28;20072;-86
2021/10/09 12:55:49;;;;;;;36.92;23.48;;;;;;;23.34;56.65;102918.94;10379592;28;20129;-84
2021/10/09 13:00:50;;;;;;;44.03;26.30;;;;;;;23.15;58.17;102920.88;10376700;28;20067;-83
2021/10/09 13:05:50;;;;;;;33.40;22.92;;;;;;;22.85;56.40;102898.72;10382907;28;20030;-83
2021/10/09 13:10:51;;;;;;;39.97;23.88;;;;;;;22.81;59.30;102925.09;10377405;28;20068;-82
2021/10/09 13:15:51;;;;;;;29.38;21.77;;;;;;;23.02;59.69;102904.50;10380058;28;20030;-83
2021/10/09 13:20:51;;;;;;;31.75;22.02;;;;;;;22.79;55.53;102915.38;10350204;28;20056;-81
2021/10/09 13:25:52;;;;;;;32.60;24.45;;;;;;;22.41;58.14;102913.66;10352812;28;20030;-83
2021/10/09 13:30:52;;;;;;;34.22;22.55;;;;;;;22.36;59.21;102911.56;10364743;28;20536;-82
2021/10/09 13:35:53;;;;;;;39.38;23.17;;;;;;;22.10;57.11;102904.38;10376441;28;20136;-81
2021/10/09 13:40:53;;;;;;;28.42;21.58;;;;;;;22.13;55.79;102892.88;9474208;28;10000572;-81
2021/10/09 13:45:53;;;;;;;27.85;20.50;;;;;;;21.83;57.52;102885.28;10379728;28;20037;-82
2021/10/09 13:50:54;;;;;;;31.35;20.65;;;;;;;21.76;62.31;102894.69;10375759;28;20445;-89
2021/10/09 13:55:54;;;;;;;31.20;21.20;;;;;;;22.01;58.57;102876.22;10377038;28;20104;-82
2021/10/09 14:00:55;;;;;;;30.80;21.42;;;;;;;21.52;58.04;102863.28;10372442;28;20041;-81
2021/10/09 14:05:55;;;;;;;28.23;20.90;;;;;;;21.49;58.19;102881.09;10376146;28;20030;-84
2021/10/09 14:10:56;;;;;;;32.95;23.08;;;;;;;21.24;58.75;102897.53;10375327;28;20114;-82
2021/10/09 14:15:56;;;;;;;31.40;20.55;;;;;;;21.46;61.53;102869.66;10357182;28;20104;-81
2021/10/09 14:20:57;;;;;;;34.17;22.63;;;;;;;21.23;58.22;102889.50;10373676;28;20454;-81
2021/10/09 14:25:57;;;;;;;27.27;21.05;;;;;;;20.81;59.00;102831.25;10373548;28;20034;-83
2021/10/09 14:30:57;;;;;;;32.03;21.30;;;;;;;21.17;58.66;102879.38;10368962;28;20113;-82
2021/10/09 14:35:58;;;;;;;38.30;23.85;;;;;;;20.66;58.84;102840.59;10374891;28;20022;-82
2021/10/09 14:40:59;;;;;;;26.15;21.00;;;;;;;20.80;60.12;102868.91;10375293;28;20037;-81
2021/10/09 14:46:22;;;;;;;29.35;21.20;;;;;;;20.37;61.85;102794.31;10350157;28;20471;-80
2021/10/09 15:22:24;;;;;;;28.83;20.80;;;;;;;18.72;63.36;102853.56;10383441;28;20649;-81
2021/10/09 15:27:26;;;;;;;31.25;24.33;;;;;;;18.24;64.50;102791.28;10382099;28;20116;-81
2021/10/09 15:32:27;;;;;;;30.77;20.48;;;;;;;18.27;65.42;102834.75;10380198;28;20117;-81
2021/10/09 15:37:29;;;;;;;28.95;21.95;;;;;;;17.69;66.18;102768.34;10384630;28;20034;-81
2021/10/09 15:42:30;;;;;;;28.13;22.13;;;;;;;18.15;64.56;102846.50;10367814;28;20044;-81
2021/10/09 15:47:31;;;;;;;36.30;24.77;;;;;;;18.07;63.71;102859.31;10381519;28;20453;-81
2021/10/09 15:52:32;;;;;;;32.35;22.90;;;;;;;18.11;64.21;102857.00;10379591;28;20061;-81
2021/10/09 15:57:32;;;;;;;33.95;23.83;;;;;;;17.77;64.91;102827.66;10380866;28;20038;-81
2021/10/09 16:02:33;;;;;;;32.88;22.83;;;;;;;17.89;64.94;102857.06;10383197;28;20029;-81
2021/10/09 16:07:34;;;;;;;34.28;21.95;;;;;;;17.69;65.08;102856.03;10380320;28;20051;-82
2021/10/09 16:12:35;;;;;;;35.72;22.30;;;;;;;17.40;65.77;102822.25;10379147;28;20458;-81
2021/10/09 16:17:35;;;;;;;36.97;26.10;;;;;;;17.50;65.73;102840.25;10379449;28;20061;-81
2021/10/09 16:22:35;;;;;;;33.40;24.30;;;;;;;17.46;66.16;102852.66;10394781;28;20114;-81
2021/10/09 16:27:36;;;;;;;32.55;22.83;;;;;;;17.36;65.68;102856.56;10376806;28;20084;-81
2021/10/09 16:32:36;;;;;;;46.17;27.05;;;;;;;17.00;66.48;102820.13;10379062;28;20034;-81
2021/10/09 16:37:37;;;;;;;36.70;27.48;;;;;;;16.99;66.43;102843.09;10376861;28;20034;-81
2021/10/09 16:42:38;;;;;;;40.33;28.58;;;;;;;16.86;67.57;102852.81;10393724;28;20065;-81
2021/10/09 16:47:38;;;;;;;45.45;27.58;;;;;;;16.91;66.56;102852.25;10378629;28;20060;-81
2021/10/09 16:52:38;;;;;;;37.13;28.13;;;;;;;16.65;66.83;102837.16;10394491;28;20053;-81
2021/10/09 16:57:39;;;;;;;38.28;26.48;;;;;;;16.44;66.97;102827.00;10377546;28;20046;-82
2021/10/09 17:02:40;;;;;;;45.85;27.35;;;;;;;16.06;66.66;102768.84;10377744;28;20386;-81
2021/10/09 17:07:40;;;;;;;45.80;29.60;;;;;;;16.29;67.33;102837.09;10378272;28;20061;-80
2021/10/09 17:12:40;;;;;;;46.40;27.70;;;;;;;16.07;66.70;102817.00;10400499;28;20117;-79
2021/10/09 17:17:41;;;;;;;43.55;28.55;;;;;;;15.61;66.84;102778.00;10403803;28;20053;-79
2021/10/09 17:22:41;;;;;;;49.85;29.25;;;;;;;15.79;66.58;102824.97;10389432;28;20037;-81
2021/10/09 17:27:42;;;;;;;46.92;31.15;;;;;;;15.53;66.85;102804.34;10377198;28;20058;-81
2021/10/09 17:32:44;;;;;;;47.35;31.30;;;;;;;15.73;67.14;102856.63;10377266;28;20354;-81
2021/10/09 17:37:44;;;;;;;47.47;28.92;;;;;;;15.60;66.87;102856.34;10375619;28;20483;-81
2021/10/09 17:42:45;;;;;;;57.97;33.95;;;;;;;15.45;67.33;102859.03;10377508;28;20038;-80
2021/10/09 17:47:50;;;;;;;50.75;32.00;;;;;;;15.38;67.00;102858.06;10392374;28;20085;-81
2021/10/09 17:52:50;;;;;;;52.10;32.58;;;;;;;15.24;66.89;102854.22;10376573;28;20041;-80
2021/10/09 17:57:51;;;;;;;40.90;29.88;;;;;;;14.95;67.05;102841.25;10370963;28;20532;-81
2021/10/09 18:02:51;;;;;;;53.85;33.42;;;;;;;14.99;67.30;102882.69;10388055;28;20045;-81
2021/10/09 18:07:52;;;;;;;49.35;31.92;;;;;;;14.83;66.86;102867.22;10375073;28;20038;-81
2021/10/09 18:12:52;;;;;;;54.67;32.78;;;;;;;14.65;66.73;102873.81;10375941;28;20062;-81
2021/10/09 18:17:52;;;;;;;54.83;36.15;;;;;;;14.42;67.25;102870.06;10375720;28;20496;-81
2021/10/09 18:22:53;;;;;;;48.15;34.35;;;;;;;14.33;67.13;102876.59;10375997;28;20034;-81
2021/10/09 18:27:53;;;;;;;50.28;34.83;;;;;;;14.03;67.74;102862.69;10374835;28;20040;-81
2021/10/09 18:32:54;;;;;;;51.67;34.67;;;;;;;14.07;67.69;102885.84;10390713;28;20100;-82
2021/10/09 18:37:54;;;;;;;59.17;37.97;;;;;;;12.75;68.19;102665.56;10373843;28;20056;-81
2021/10/09 18:42:55;;;;;;;55.65;34.72;;;;;;;14.00;68.63;102881.25;10374413;28;20422;-81
2021/10/09 18:47:55;;;;;;;54.08;37.53;;;;;;;14.07;68.25;102894.03;10375744;28;20037;-81
2021/10/09 18:52:56;;;;;;;53.55;36.53;;;;;;;13.74;67.89;102860.50;10382315;28;20505;-81
2021/10/09 18:57:57;;;;;;;59.72;39.63;;;;;;;13.19;67.98;102776.75;10382882;28;20041;-81
2021/10/09 19:03:00;;;;;;;61.00;36.63;;;;;;;13.70;68.09;102881.75;10382119;28;20025;-81
2021/10/09 19:08:00;;;;;;;61.75;35.92;;;;;;;13.55;68.07;102875.28;10380964;28;20081;-81
2021/10/09 19:13:01;;;;;;;50.38;37.88;;;;;;;13.33;68.77;102856.88;10381977;28;20078;-81
2021/10/09 19:18:01;;;;;;;59.47;38.22;;;;;;;13.52;68.58;102881.06;10383716;28;20129;-80
2021/10/09 19:23:01;;;;;;;50.33;37.58;;;;;;;13.48;68.06;102879.72;10382720;28;20437;-81
2021/10/09 19:28:02;;;;;;;61.40;38.58;;;;;;;13.39;68.05;102902.50;10381150;28;20056;-81
2021/10/09 19:33:07;;;;;;;57.80;35.70;;;;;;;11.99;68.28;102669.28;10381122;28;20105;-81
2021/10/09 19:38:07;;;;;;;50.22;36.92;;;;;;;13.22;68.16;102888.81;10396589;28;20044;-81
2021/10/09 19:43:08;;;;;;;58.92;39.95;;;;;;;13.11;68.19;102894.56;10397585;28;20083;-81
2021/10/09 19:48:08;;;;;;;60.38;39.15;;;;;;;13.00;68.47;102903.88;10396512;28;20038;-81
2021/10/09 19:53:21;;;;;;;54.15;36.50;;;;;;;12.56;68.03;102814.34;10381417;28;20069;-81
2021/10/09 19:58:21;;;;;;;53.28;35.97;;;;;;;12.44;67.49;102820.22;10381177;28;20034;-81
2021/10/09 20:03:22;;;;;;;60.25;34.92;;;;;;;12.75;67.98;102886.59;10379788;28;20073;-81
2021/10/09 20:08:22;;;;;;;52.65;35.55;;;;;;;12.73;67.96;102895.94;10380461;28;20052;-81
2021/10/09 20:13:23;;;;;;;46.10;35.00;;;;;;;12.66;67.79;102898.47;10388211;28;20467;-81
2021/10/09 20:18:23;;;;;;;52.45;37.53;;;;;;;12.39;68.01;102869.63;10390067;28;20045;-82
2021/10/09 20:23:27;;;;;;;59.42;38.50;;;;;;;12.51;68.18;102902.81;10382119;28;20026;-81
2021/10/09 20:28:27;;;;;;;61.55;38.67;;;;;;;12.47;68.49;102904.13;10396266;28;20034;-81
2021/10/09 20:33:28;;;;;;;48.40;37.03;;;;;;;12.18;68.59;102870.00;10379750;28;20040;-81
2021/10/09 20:38:28;;;;;;;58.08;41.35;;;;;;;12.36;68.30;102913.41;10378785;28;20038;-81
2021/10/09 20:43:29;;;;;;;55.85;38.95;;;;;;;12.31;68.43;102908.44;10361011;28;20034;-81
2021/10/09 20:48:29;;;;;;;65.32;40.63;;;;;;;12.29;68.84;102915.94;10378173;28;20041;-81
2021/10/09 20:53:29;;;;;;;59.83;37.97;;;;;;;12.10;68.80;102891.69;10378087;28;20042;-81
2021/10/09 20:58:30;;;;;;;56.78;41.47;;;;;;;11.67;68.60;102832.78;10377512;28;20045;-81
2021/10/09 21:03:30;;;;;;;59.70;41.25;;;;;;;12.18;68.95;102913.47;10376233;28;20473;-81
2021/10/09 21:08:36;;;;;;;59.08;36.20;;;;;;;12.09;68.64;102922.56;10377344;28;20381;-81
2021/10/09 21:24:11;;;;;;;62.13;41.40;;;;;;;11.97;69.20;102892.09;10347580;28;20393;-79
2021/10/09 21:29:11;;;;;;;55.30;41.85;;;;;;;11.94;68.58;102897.00;10375926;28;20061;-80
2021/10/09 21:34:11;;;;;;;57.47;39.38;;;;;;;11.93;68.38;102889.84;10376914;28;20025;-80
2021/10/09 21:39:14;;;;;;;62.92;42.20;;;;;;;11.88;68.78;102889.47;10377031;28;20053;-80
2021/10/09 21:44:15;;;;;;;61.20;42.22;;;;;;;11.77;68.89;102893.25;10377253;28;20040;-79
2021/10/09 21:49:15;;;;;;;56.40;41.22;;;;;;;11.21;68.46;102800.34;10392059;28;20030;-80
2021/10/09 21:54:16;;;;;;;65.55;43.63;;;;;;;11.71;68.60;102892.03;10375072;28;20496;-80
2021/10/09 22:36:16;;;;;;;72.32;43.65;;;;;;;11.28;68.79;102879.22;10386048;28;20038;-80
2021/10/09 22:41:17;;;;;;;61.45;41.78;;;;;;;11.10;68.68;102855.66;10375786;28;20076;-80
2021/10/09 22:46:17;;;;;;;65.35;43.45;;;;;;;11.26;69.18;102884.78;10374697;28;20037;-80
2021/10/09 22:51:17;;;;;;;54.03;39.70;;;;;;;10.85;68.99;102818.44;10374709;28;20195;-80
2021/10/09 22:56:18;;;;;;;62.38;40.88;;;;;;;11.15;68.78;102869.59;10372743;28;20084;-80
2021/10/09 23:01:18;;;;;;;66.50;41.65;;;;;;;11.18;68.40;102892.84;10373875;28;20034;-80
2021/10/09 23:06:18;;;;;;;72.28;42.92;;;;;;;11.10;69.02;102868.34;10373384;28;20377;-81
2021/10/09 23:11:19;;;;;;;72.28;43.58;;;;;;;11.13;68.62;102878.88;10374640;28;20041;-79
2021/10/09 23:16:19;;;;;;;74.93;44.60;;;;;;;10.61;68.61;102810.88;10373641;28;20066;-79
2021/10/09 23:21:20;;;;;;;65.50;42.75;;;;;;;10.88;69.01;102862.38;10373704;28;20030;-81
2021/10/09 23:26:20;;;;;;;77.45;46.15;;;;;;;10.69;69.16;102830.81;10373943;28;20038;-80
2021/10/09 23:31:21;;;;;;;70.43;42.90;;;;;;;10.98;68.82;102877.72;10374004;28;20120;-80
2021/10/09 23:36:21;;;;;;;64.50;43.70;;;;;;;10.89;68.50;102860.50;10377289;28;20038;-81
2021/10/09 23:41:22;;;;;;;58.72;41.30;;;;;;;10.20;68.31;102756.16;10379888;28;20124;-80
2021/10/09 23:46:22;;;;;;;65.75;41.55;;;;;;;10.43;68.22;102808.09;10380610;28;20049;-80
2021/10/09 23:51:22;;;;;;;65.05;41.78;;;;;;;10.68;68.57;102849.91;10380491;28;20474;-80
2021/10/09 23:56:23;;;;;;;55.28;38.58;;;;;;;10.70;68.26;102864.16;10382797;28;20038;-79
